sensor_id;sensor_type;location;lat;lon;timestamp;P1;durP1;ratioP1;P2;durP2;ratioP2
51824;SDS011;37879;52.986;6.282;2022-09-20T00:01:17;7.90;;;1.58;;
51824;SDS011;37879;52.986;6.282;2022-09-20T00:03:46;4.95;;;1.30;;
51824;SDS011;37879;52.986;6.282;2022-09-20T00:06:14;5.45;;;0.88;;
51824;SDS011;37879;52.986;6.282;2022-09-20T00:08:41;5.43;;;1.10;;
51824;SDS011;37879;52.986;6.282;2022-09-20T00:11:12;3.08;;;1.17;;
51824;SDS011;37879;52.986;6.282;2022-09-20T00:13:39;6.18;;;1.45;;
51824;SDS011;37879;52.986;6.282;2022-09-20T00:16:07;7.75;;;1.15;;
51824;SDS011;37879;52.986;6.282;2022-09-20T00:18:34;9.00;;;1.45;;
51824;SDS011;37879;52.986;6.282;2022-09-20T00:21:00;9.02;;;1.10;;
51824;SDS011;37879;52.986;6.282;2022-09-20T00:23:26;9.35;;;1.48;;
51824;SDS011;37879;52.986;6.282;2022-09-20T00:25:58;7.25;;;1.58;;
51824;SDS011;37879;52.986;6.282;2022-09-20T00:28:25;7.32;;;1.67;;
51824;SDS011;37879;52.986;6.282;2022-09-20T00:30:51;9.85;;;1.60;;
51824;SDS011;37879;52.986;6.282;2022-09-20T00:33:18;4.05;;;1.08;;
51824;SDS011;37879;52.986;6.282;2022-09-20T00:35:45;6.30;;;1.10;;
51824;SDS011;37879;52.986;6.282;2022-09-20T00:38:11;4.68;;;1.50;;
51824;SDS011;37879;52.986;6.282;2022-09-20T00:40:38;6.90;;;1.40;;
51824;SDS011;37879;52.986;6.282;2022-09-20T00:43:04;7.20;;;1.20;;
51824;SDS011;37879;52.986;6.282;2022-09-20T00:45:31;7.32;;;0.93;;
51824;SDS011;37879;52.986;6.282;2022-09-20T00:48:04;7.10;;;1.70;;
51824;SDS011;37879;52.986;6.282;2022-09-20T00:50:33;6.00;;;1.45;;
51824;SDS011;37879;52.986;6.282;2022-09-20T00:55:32;9.88;;;2.53;;
51824;SDS011;37879;52.986;6.282;2022-09-20T00:57:58;2.42;;;1.00;;
51824;SDS011;37879;52.986;6.282;2022-09-20T01:00:25;5.43;;;1.15;;
51824;SDS011;37879;52.986;6.282;2022-09-20T01:02:53;10.95;;;1.35;;
51824;SDS011;37879;52.986;6.282;2022-09-20T01:05:19;3.25;;;1.48;;
51824;SDS011;37879;52.986;6.282;2022-09-20T01:07:46;4.35;;;1.10;;
51824;SDS011;37879;52.986;6.282;2022-09-20T01:10:13;10.88;;;1.42;;
51824;SDS011;37879;52.986;6.282;2022-09-20T01:12:39;6.53;;;1.13;;
51824;SDS011;37879;52.986;6.282;2022-09-20T01:15:10;6.35;;;0.98;;
51824;SDS011;37879;52.986;6.282;2022-09-20T01:17:38;4.20;;;1.33;;
51824;SDS011;37879;52.986;6.282;2022-09-20T01:20:15;7.60;;;1.10;;
51824;SDS011;37879;52.986;6.282;2022-09-20T01:28:11;4.93;;;1.35;;
51824;SDS011;37879;52.986;6.282;2022-09-20T01:30:38;4.97;;;0.85;;
51824;SDS011;37879;52.986;6.282;2022-09-20T01:35:32;8.48;;;1.38;;
51824;SDS011;37879;52.986;6.282;2022-09-20T01:45:36;4.68;;;0.98;;
51824;SDS011;37879;52.986;6.282;2022-09-20T01:48:17;3.55;;;1.05;;
51824;SDS011;37879;52.986;6.282;2022-09-20T01:58:31;6.00;;;1.35;;
51824;SDS011;37879;52.986;6.282;2022-09-20T02:03:36;4.40;;;1.70;;
51824;SDS011;37879;52.986;6.282;2022-09-20T02:06:20;11.55;;;2.30;;
51824;SDS011;37879;52.986;6.282;2022-09-20T02:11:31;9.20;;;1.38;;
51824;SDS011;37879;52.986;6.282;2022-09-20T02:21:31;4.95;;;1.45;;
51824;SDS011;37879;52.986;6.282;2022-09-20T02:26:56;4.78;;;1.17;;
51824;SDS011;37879;52.986;6.282;2022-09-20T02:32:02;6.28;;;1.05;;
51824;SDS011;37879;52.986;6.282;2022-09-20T02:37:21;9.80;;;1.20;;
51824;SDS011;37879;52.986;6.282;2022-09-20T02:40:05;5.60;;;1.05;;
51824;SDS011;37879;52.986;6.282;2022-09-20T02:47:50;3.90;;;1.02;;
51824;SDS011;37879;52.986;6.282;2022-09-20T02:50:36;4.78;;;1.30;;
51824;SDS011;37879;52.986;6.282;2022-09-20T02:53:28;3.13;;;0.65;;
51824;SDS011;37879;52.986;6.282;2022-09-20T03:06:41;6.68;;;1.48;;
51824;SDS011;37879;52.986;6.282;2022-09-20T03:14:27;2.72;;;0.88;;
51824;SDS011;37879;52.986;6.282;2022-09-20T03:17:03;4.18;;;1.17;;
51824;SDS011;37879;52.986;6.282;2022-09-20T03:22:45;5.38;;;1.02;;
51824;SDS011;37879;52.986;6.282;2022-09-20T03:30:23;5.07;;;0.90;;
51824;SDS011;37879;52.986;6.282;2022-09-20T03:33:08;8.07;;;1.20;;
51824;SDS011;37879;52.986;6.282;2022-09-20T03:41:09;2.77;;;0.60;;
51824;SDS011;37879;52.986;6.282;2022-09-20T03:46:16;6.70;;;0.93;;
51824;SDS011;37879;52.986;6.282;2022-09-20T03:49:01;7.30;;;1.00;;
51824;SDS011;37879;52.986;6.282;2022-09-20T03:51:37;1.48;;;0.57;;
51824;SDS011;37879;52.986;6.282;2022-09-20T04:12:39;2.10;;;0.50;;
51824;SDS011;37879;52.986;6.282;2022-09-20T04:20:31;6.60;;;0.40;;
51824;SDS011;37879;52.986;6.282;2022-09-20T04:23:01;3.50;;;0.50;;
51824;SDS011;37879;52.986;6.282;2022-09-20T04:25:33;3.72;;;0.40;;
51824;SDS011;37879;52.986;6.282;2022-09-20T04:28:04;5.38;;;0.70;;
51824;SDS011;37879;52.986;6.282;2022-09-20T04:30:32;5.05;;;0.68;;
51824;SDS011;37879;52.986;6.282;2022-09-20T04:36:27;3.17;;;0.60;;
51824;SDS011;37879;52.986;6.282;2022-09-20T04:59:56;4.25;;;0.88;;
51824;SDS011;37879;52.986;6.282;2022-09-20T05:24:33;5.90;;;1.40;;
51824;SDS011;37879;52.986;6.282;2022-09-20T05:29:53;3.83;;;1.13;;
51824;SDS011;37879;52.986;6.282;2022-09-20T05:34:51;5.07;;;1.83;;
51824;SDS011;37879;52.986;6.282;2022-09-20T05:37:27;4.47;;;1.02;;
51824;SDS011;37879;52.986;6.282;2022-09-20T05:39:58;4.20;;;1.42;;
51824;SDS011;37879;52.986;6.282;2022-09-20T05:42:41;3.33;;;0.90;;
51824;SDS011;37879;52.986;6.282;2022-09-20T05:50:56;4.57;;;1.25;;
51824;SDS011;37879;52.986;6.282;2022-09-20T06:03:53;4.23;;;1.60;;
51824;SDS011;37879;52.986;6.282;2022-09-20T06:06:21;7.97;;;1.65;;
51824;SDS011;37879;52.986;6.282;2022-09-20T06:16:27;5.03;;;1.27;;
51824;SDS011;37879;52.986;6.282;2022-09-20T06:19:00;3.10;;;1.63;;
51824;SDS011;37879;52.986;6.282;2022-09-20T06:24:03;5.45;;;1.40;;
51824;SDS011;37879;52.986;6.282;2022-09-20T06:26:37;5.47;;;1.63;;
51824;SDS011;37879;52.986;6.282;2022-09-20T06:29:05;4.63;;;1.27;;
51824;SDS011;37879;52.986;6.282;2022-09-20T06:31:31;5.28;;;1.33;;
51824;SDS011;37879;52.986;6.282;2022-09-20T06:34:16;6.32;;;1.77;;
51824;SDS011;37879;52.986;6.282;2022-09-20T06:36:44;5.15;;;1.17;;
51824;SDS011;37879;52.986;6.282;2022-09-20T06:42:31;6.50;;;1.45;;
51824;SDS011;37879;52.986;6.282;2022-09-20T06:44:57;3.58;;;1.00;;
51824;SDS011;37879;52.986;6.282;2022-09-20T06:47:23;5.35;;;1.40;;
51824;SDS011;37879;52.986;6.282;2022-09-20T06:49:51;3.60;;;1.08;;
51824;SDS011;37879;52.986;6.282;2022-09-20T06:52:18;4.00;;;0.90;;
51824;SDS011;37879;52.986;6.282;2022-09-20T06:54:51;3.80;;;1.25;;
51824;SDS011;37879;52.986;6.282;2022-09-20T06:57:22;3.38;;;1.17;;
51824;SDS011;37879;52.986;6.282;2022-09-20T06:59:48;4.97;;;1.45;;
51824;SDS011;37879;52.986;6.282;2022-09-20T07:02:14;3.55;;;0.90;;
51824;SDS011;37879;52.986;6.282;2022-09-20T07:04:41;9.02;;;1.40;;
51824;SDS011;37879;52.986;6.282;2022-09-20T07:07:11;2.72;;;0.85;;
51824;SDS011;37879;52.986;6.282;2022-09-20T07:09:40;5.93;;;1.63;;
51824;SDS011;37879;52.986;6.282;2022-09-20T07:12:06;3.55;;;1.15;;
51824;SDS011;37879;52.986;6.282;2022-09-20T07:14:34;3.15;;;1.17;;
51824;SDS011;37879;52.986;6.282;2022-09-20T07:17:01;4.82;;;1.08;;
51824;SDS011;37879;52.986;6.282;2022-09-20T07:19:28;5.00;;;1.15;;
51824;SDS011;37879;52.986;6.282;2022-09-20T07:21:54;5.47;;;0.90;;
51824;SDS011;37879;52.986;6.282;2022-09-20T07:24:20;4.57;;;0.80;;
51824;SDS011;37879;52.986;6.282;2022-09-20T07:26:54;4.68;;;1.00;;
51824;SDS011;37879;52.986;6.282;2022-09-20T07:29:20;3.40;;;0.90;;
51824;SDS011;37879;52.986;6.282;2022-09-20T07:31:47;4.38;;;1.00;;
51824;SDS011;37879;52.986;6.282;2022-09-20T07:34:14;4.68;;;0.90;;
51824;SDS011;37879;52.986;6.282;2022-09-20T07:36:47;5.47;;;1.10;;
51824;SDS011;37879;52.986;6.282;2022-09-20T07:39:14;2.67;;;1.00;;
51824;SDS011;37879;52.986;6.282;2022-09-20T07:41:40;2.97;;;0.80;;
51824;SDS011;37879;52.986;6.282;2022-09-20T07:44:09;5.13;;;0.70;;
51824;SDS011;37879;52.986;6.282;2022-09-20T07:46:55;5.82;;;1.27;;
51824;SDS011;37879;52.986;6.282;2022-09-20T07:49:25;4.57;;;1.05;;
51824;SDS011;37879;52.986;6.282;2022-09-20T07:51:53;8.32;;;1.23;;
51824;SDS011;37879;52.986;6.282;2022-09-20T07:54:20;2.60;;;0.70;;
51824;SDS011;37879;52.986;6.282;2022-09-20T07:56:46;7.00;;;1.30;;
51824;SDS011;37879;52.986;6.282;2022-09-20T07:59:12;3.65;;;0.98;;
51824;SDS011;37879;52.986;6.282;2022-09-20T08:01:39;3.05;;;0.88;;
51824;SDS011;37879;52.986;6.282;2022-09-20T08:04:08;4.72;;;1.20;;
51824;SDS011;37879;52.986;6.282;2022-09-20T08:06:35;1.65;;;1.00;;
51824;SDS011;37879;52.986;6.282;2022-09-20T08:09:02;6.32;;;0.60;;
51824;SDS011;37879;52.986;6.282;2022-09-20T08:11:28;5.55;;;0.75;;
51824;SDS011;37879;52.986;6.282;2022-09-20T08:13:55;4.68;;;0.70;;
51824;SDS011;37879;52.986;6.282;2022-09-20T08:16:21;6.20;;;1.33;;
51824;SDS011;37879;52.986;6.282;2022-09-20T08:18:49;3.63;;;0.68;;
51824;SDS011;37879;52.986;6.282;2022-09-20T08:21:15;4.65;;;1.23;;
51824;SDS011;37879;52.986;6.282;2022-09-20T08:23:43;2.22;;;0.45;;
51824;SDS011;37879;52.986;6.282;2022-09-20T08:26:10;4.80;;;0.80;;
51824;SDS011;37879;52.986;6.282;2022-09-20T08:28:37;5.30;;;1.10;;
51824;SDS011;37879;52.986;6.282;2022-09-20T08:31:04;2.50;;;0.60;;
51824;SDS011;37879;52.986;6.282;2022-09-20T08:33:31;4.80;;;0.73;;
51824;SDS011;37879;52.986;6.282;2022-09-20T08:35:57;4.88;;;1.20;;
51824;SDS011;37879;52.986;6.282;2022-09-20T08:38:26;4.85;;;0.77;;
51824;SDS011;37879;52.986;6.282;2022-09-20T08:41:03;4.82;;;0.82;;
51824;SDS011;37879;52.986;6.282;2022-09-20T08:43:34;4.63;;;0.80;;
51824;SDS011;37879;52.986;6.282;2022-09-20T08:46:01;4.68;;;1.08;;
51824;SDS011;37879;52.986;6.282;2022-09-20T08:48:28;3.30;;;0.90;;
51824;SDS011;37879;52.986;6.282;2022-09-20T08:50:58;6.78;;;1.08;;
51824;SDS011;37879;52.986;6.282;2022-09-20T08:53:26;6.10;;;0.60;;
51824;SDS011;37879;52.986;6.282;2022-09-20T08:55:53;7.05;;;1.98;;
51824;SDS011;37879;52.986;6.282;2022-09-20T08:58:22;4.40;;;0.80;;
51824;SDS011;37879;52.986;6.282;2022-09-20T09:00:48;7.05;;;1.02;;
51824;SDS011;37879;52.986;6.282;2022-09-20T09:03:15;6.20;;;1.77;;
51824;SDS011;37879;52.986;6.282;2022-09-20T09:05:45;2.90;;;0.30;;
51824;SDS011;37879;52.986;6.282;2022-09-20T09:08:13;3.20;;;0.65;;
51824;SDS011;37879;52.986;6.282;2022-09-20T09:10:41;4.78;;;0.90;;
51824;SDS011;37879;52.986;6.282;2022-09-20T09:13:09;4.88;;;1.05;;
51824;SDS011;37879;52.986;6.282;2022-09-20T09:15:36;2.30;;;0.40;;
51824;SDS011;37879;52.986;6.282;2022-09-20T09:18:04;3.95;;;1.00;;
51824;SDS011;37879;52.986;6.282;2022-09-20T09:20:39;4.32;;;0.90;;
51824;SDS011;37879;52.986;6.282;2022-09-20T09:23:06;6.32;;;1.30;;
51824;SDS011;37879;52.986;6.282;2022-09-20T09:25:37;2.78;;;0.73;;
51824;SDS011;37879;52.986;6.282;2022-09-20T09:35:51;3.70;;;0.57;;
51824;SDS011;37879;52.986;6.282;2022-09-20T09:38:18;3.63;;;1.08;;
51824;SDS011;37879;52.986;6.282;2022-09-20T09:40:52;4.25;;;0.82;;
51824;SDS011;37879;52.986;6.282;2022-09-20T09:43:20;6.70;;;1.02;;
51824;SDS011;37879;52.986;6.282;2022-09-20T09:45:53;3.15;;;1.10;;
51824;SDS011;37879;52.986;6.282;2022-09-20T09:48:27;3.25;;;0.43;;
51824;SDS011;37879;52.986;6.282;2022-09-20T09:51:08;5.05;;;0.93;;
51824;SDS011;37879;52.986;6.282;2022-09-20T09:53:35;3.38;;;0.70;;
51824;SDS011;37879;52.986;6.282;2022-09-20T09:56:05;2.63;;;0.93;;
51824;SDS011;37879;52.986;6.282;2022-09-20T10:00:59;3.47;;;0.63;;
51824;SDS011;37879;52.986;6.282;2022-09-20T10:03:36;1.63;;;0.50;;
51824;SDS011;37879;52.986;6.282;2022-09-20T10:06:23;5.50;;;0.80;;
51824;SDS011;37879;52.986;6.282;2022-09-20T10:09:00;6.18;;;1.17;;
51824;SDS011;37879;52.986;6.282;2022-09-20T10:28:00;4.50;;;0.80;;
51824;SDS011;37879;52.986;6.282;2022-09-20T10:38:16;5.82;;;1.20;;
51824;SDS011;37879;52.986;6.282;2022-09-20T10:48:50;4.13;;;1.08;;
51824;SDS011;37879;52.986;6.282;2022-09-20T10:56:49;4.60;;;0.63;;
51824;SDS011;37879;52.986;6.282;2022-09-20T10:59:25;4.13;;;0.88;;
51824;SDS011;37879;52.986;6.282;2022-09-20T11:09:34;4.65;;;0.93;;
51824;SDS011;37879;52.986;6.282;2022-09-20T11:14:32;3.55;;;0.63;;
51824;SDS011;37879;52.986;6.282;2022-09-20T11:19:57;3.38;;;0.68;;
51824;SDS011;37879;52.986;6.282;2022-09-20T11:22:27;2.17;;;0.50;;
51824;SDS011;37879;52.986;6.282;2022-09-20T11:27:36;1.95;;;0.38;;
51824;SDS011;37879;52.986;6.282;2022-09-20T11:30:05;2.58;;;1.00;;
51824;SDS011;37879;52.986;6.282;2022-09-20T11:33:10;1.60;;;0.22;;
51824;SDS011;37879;52.986;6.282;2022-09-20T11:40:44;2.85;;;0.43;;
51824;SDS011;37879;52.986;6.282;2022-09-20T11:43:13;2.65;;;0.63;;
51824;SDS011;37879;52.986;6.282;2022-09-20T11:45:40;6.22;;;0.60;;
51824;SDS011;37879;52.986;6.282;2022-09-20T11:48:20;10.05;;;1.08;;
51824;SDS011;37879;52.986;6.282;2022-09-20T11:50:55;3.47;;;0.45;;
51824;SDS011;37879;52.986;6.282;2022-09-20T11:53:33;7.68;;;1.38;;
51824;SDS011;37879;52.986;6.282;2022-09-20T11:58:47;4.88;;;0.70;;
51824;SDS011;37879;52.986;6.282;2022-09-20T12:01:15;9.05;;;0.80;;
51824;SDS011;37879;52.986;6.282;2022-09-20T12:03:42;3.22;;;0.50;;
51824;SDS011;37879;52.986;6.282;2022-09-20T12:06:26;4.32;;;0.88;;
51824;SDS011;37879;52.986;6.282;2022-09-20T12:08:54;5.25;;;0.98;;
51824;SDS011;37879;52.986;6.282;2022-09-20T12:11:32;3.63;;;0.50;;
51824;SDS011;37879;52.986;6.282;2022-09-20T12:14:45;3.95;;;0.82;;
51824;SDS011;37879;52.986;6.282;2022-09-20T12:16:52;3.60;;;0.90;;
51824;SDS011;37879;52.986;6.282;2022-09-20T12:24:20;5.32;;;1.05;;
51824;SDS011;37879;52.986;6.282;2022-09-20T12:26:46;2.88;;;0.60;;
51824;SDS011;37879;52.986;6.282;2022-09-20T12:42:20;3.38;;;0.80;;
51824;SDS011;37879;52.986;6.282;2022-09-20T12:44:31;1.17;;;0.35;;
51824;SDS011;37879;52.986;6.282;2022-09-20T12:49:29;2.47;;;0.38;;
51824;SDS011;37879;52.986;6.282;2022-09-20T12:55:25;2.95;;;0.40;;
51824;SDS011;37879;52.986;6.282;2022-09-20T13:00:40;2.80;;;0.80;;
51824;SDS011;37879;52.986;6.282;2022-09-20T13:03:23;3.85;;;0.52;;
51824;SDS011;37879;52.986;6.282;2022-09-20T13:21:32;1.83;;;0.50;;
51824;SDS011;37879;52.986;6.282;2022-09-20T13:23:59;2.05;;;0.50;;
51824;SDS011;37879;52.986;6.282;2022-09-20T13:26:28;0.80;;;0.22;;
51824;SDS011;37879;52.986;6.282;2022-09-20T13:28:57;2.17;;;0.70;;
51824;SDS011;37879;52.986;6.282;2022-09-20T13:31:24;2.63;;;0.75;;
51824;SDS011;37879;52.986;6.282;2022-09-20T13:33:51;1.83;;;0.57;;
51824;SDS011;37879;52.986;6.282;2022-09-20T13:36:19;3.40;;;0.30;;
51824;SDS011;37879;52.986;6.282;2022-09-20T13:38:46;1.67;;;0.40;;
51824;SDS011;37879;52.986;6.282;2022-09-20T13:41:13;2.03;;;0.60;;
51824;SDS011;37879;52.986;6.282;2022-09-20T13:43:41;2.63;;;0.50;;
51824;SDS011;37879;52.986;6.282;2022-09-20T13:48:34;2.70;;;0.70;;
51824;SDS011;37879;52.986;6.282;2022-09-20T13:51:00;1.23;;;0.20;;
51824;SDS011;37879;52.986;6.282;2022-09-20T13:53:27;5.50;;;0.80;;
51824;SDS011;37879;52.986;6.282;2022-09-20T13:55:56;4.40;;;0.60;;
51824;SDS011;37879;52.986;6.282;2022-09-20T13:58:27;4.38;;;0.90;;
51824;SDS011;37879;52.986;6.282;2022-09-20T14:00:54;2.05;;;0.47;;
51824;SDS011;37879;52.986;6.282;2022-09-20T14:03:21;3.28;;;0.60;;
51824;SDS011;37879;52.986;6.282;2022-09-20T14:06:01;1.85;;;0.22;;
51824;SDS011;37879;52.986;6.282;2022-09-20T14:08:34;3.58;;;0.80;;
51824;SDS011;37879;52.986;6.282;2022-09-20T14:11:05;1.58;;;0.50;;
51824;SDS011;37879;52.986;6.282;2022-09-20T14:13:37;2.60;;;0.50;;
51824;SDS011;37879;52.986;6.282;2022-09-20T14:16:05;2.42;;;0.50;;
51824;SDS011;37879;52.986;6.282;2022-09-20T14:18:32;2.63;;;0.30;;
51824;SDS011;37879;52.986;6.282;2022-09-20T14:20:58;2.70;;;0.57;;
51824;SDS011;37879;52.986;6.282;2022-09-20T14:23:25;2.20;;;0.60;;
51824;SDS011;37879;52.986;6.282;2022-09-20T14:26:05;4.25;;;0.50;;
51824;SDS011;37879;52.986;6.282;2022-09-20T14:28:31;3.75;;;0.95;;
51824;SDS011;37879;52.986;6.282;2022-09-20T14:31:04;3.05;;;0.50;;
51824;SDS011;37879;52.986;6.282;2022-09-20T14:33:31;2.00;;;0.60;;
51824;SDS011;37879;52.986;6.282;2022-09-20T14:35:57;3.30;;;0.85;;
51824;SDS011;37879;52.986;6.282;2022-09-20T14:38:24;1.98;;;0.50;;
51824;SDS011;37879;52.986;6.282;2022-09-20T14:40:51;5.47;;;0.85;;
51824;SDS011;37879;52.986;6.282;2022-09-20T14:43:23;2.67;;;0.60;;
51824;SDS011;37879;52.986;6.282;2022-09-20T14:45:57;2.95;;;1.17;;
51824;SDS011;37879;52.986;6.282;2022-09-20T14:53:36;2.17;;;0.52;;
51824;SDS011;37879;52.986;6.282;2022-09-20T14:58:29;1.75;;;0.88;;
51824;SDS011;37879;52.986;6.282;2022-09-20T15:00:57;4.97;;;0.70;;
51824;SDS011;37879;52.986;6.282;2022-09-20T15:03:26;2.95;;;0.40;;
51824;SDS011;37879;52.986;6.282;2022-09-20T15:05:54;3.38;;;0.70;;
51824;SDS011;37879;52.986;6.282;2022-09-20T15:08:20;3.35;;;0.60;;
51824;SDS011;37879;52.986;6.282;2022-09-20T15:10:47;3.17;;;1.30;;
51824;SDS011;37879;52.986;6.282;2022-09-20T15:13:13;0.85;;;0.30;;
51824;SDS011;37879;52.986;6.282;2022-09-20T15:15:40;2.45;;;0.40;;
51824;SDS011;37879;52.986;6.282;2022-09-20T15:18:36;3.88;;;0.68;;
51824;SDS011;37879;52.986;6.282;2022-09-20T15:21:04;5.75;;;1.02;;
51824;SDS011;37879;52.986;6.282;2022-09-20T15:23:30;1.70;;;0.50;;
51824;SDS011;37879;52.986;6.282;2022-09-20T15:25:57;5.18;;;1.00;;
51824;SDS011;37879;52.986;6.282;2022-09-20T15:28:24;2.70;;;0.60;;
51824;SDS011;37879;52.986;6.282;2022-09-20T15:30:52;2.25;;;0.60;;
51824;SDS011;37879;52.986;6.282;2022-09-20T15:33:19;3.38;;;0.68;;
51824;SDS011;37879;52.986;6.282;2022-09-20T15:35:46;3.53;;;0.70;;
51824;SDS011;37879;52.986;6.282;2022-09-20T15:38:12;6.63;;;1.08;;
51824;SDS011;37879;52.986;6.282;2022-09-20T15:40:41;1.25;;;0.20;;
51824;SDS011;37879;52.986;6.282;2022-09-20T15:43:10;1.55;;;0.38;;
51824;SDS011;37879;52.986;6.282;2022-09-20T15:45:56;1.33;;;0.30;;
51824;SDS011;37879;52.986;6.282;2022-09-20T15:48:24;3.42;;;1.13;;
51824;SDS011;37879;52.986;6.282;2022-09-20T15:53:21;1.63;;;0.70;;
51824;SDS011;37879;52.986;6.282;2022-09-20T15:55:47;4.53;;;1.00;;
51824;SDS011;37879;52.986;6.282;2022-09-20T15:58:13;2.47;;;0.70;;
51824;SDS011;37879;52.986;6.282;2022-09-20T16:00:39;4.57;;;0.80;;
51824;SDS011;37879;52.986;6.282;2022-09-20T16:03:06;4.90;;;1.45;;
51824;SDS011;37879;52.986;6.282;2022-09-20T16:05:33;6.10;;;0.85;;
51824;SDS011;37879;52.986;6.282;2022-09-20T16:08:00;2.15;;;0.68;;
51824;SDS011;37879;52.986;6.282;2022-09-20T16:10:27;5.57;;;0.68;;
51824;SDS011;37879;52.986;6.282;2022-09-20T16:12:53;6.30;;;0.70;;
51824;SDS011;37879;52.986;6.282;2022-09-20T16:15:19;2.85;;;0.70;;
51824;SDS011;37879;52.986;6.282;2022-09-20T16:17:45;5.13;;;0.88;;
51824;SDS011;37879;52.986;6.282;2022-09-20T16:20:30;2.65;;;0.68;;
51824;SDS011;37879;52.986;6.282;2022-09-20T16:22:56;6.60;;;0.70;;
51824;SDS011;37879;52.986;6.282;2022-09-20T16:25:22;3.83;;;0.63;;
51824;SDS011;37879;52.986;6.282;2022-09-20T16:27:48;1.67;;;0.40;;
51824;SDS011;37879;52.986;6.282;2022-09-20T16:30:14;2.88;;;1.08;;
51824;SDS011;37879;52.986;6.282;2022-09-20T16:32:40;5.18;;;0.65;;
51824;SDS011;37879;52.986;6.282;2022-09-20T16:35:07;5.43;;;1.00;;
51824;SDS011;37879;52.986;6.282;2022-09-20T16:37:33;3.33;;;0.55;;
51824;SDS011;37879;52.986;6.282;2022-09-20T16:40:00;6.20;;;0.82;;
51824;SDS011;37879;52.986;6.282;2022-09-20T16:42:27;4.45;;;0.93;;
51824;SDS011;37879;52.986;6.282;2022-09-20T16:44:54;2.88;;;0.35;;
51824;SDS011;37879;52.986;6.282;2022-09-20T16:47:21;1.10;;;0.45;;
51824;SDS011;37879;52.986;6.282;2022-09-20T16:49:49;2.22;;;0.60;;
51824;SDS011;37879;52.986;6.282;2022-09-20T16:52:17;3.22;;;0.70;;
51824;SDS011;37879;52.986;6.282;2022-09-20T16:54:43;2.38;;;0.82;;
51824;SDS011;37879;52.986;6.282;2022-09-20T16:57:09;2.25;;;0.60;;
51824;SDS011;37879;52.986;6.282;2022-09-20T16:59:37;6.22;;;1.00;;
51824;SDS011;37879;52.986;6.282;2022-09-20T17:02:03;3.20;;;0.60;;
51824;SDS011;37879;52.986;6.282;2022-09-20T17:04:29;3.45;;;0.73;;
51824;SDS011;37879;52.986;6.282;2022-09-20T17:06:55;4.75;;;0.98;;
51824;SDS011;37879;52.986;6.282;2022-09-20T17:09:21;5.60;;;1.15;;
51824;SDS011;37879;52.986;6.282;2022-09-20T17:11:48;2.25;;;0.50;;
51824;SDS011;37879;52.986;6.282;2022-09-20T17:14:16;2.17;;;0.60;;
51824;SDS011;37879;52.986;6.282;2022-09-20T17:16:43;4.05;;;1.02;;
51824;SDS011;37879;52.986;6.282;2022-09-20T17:19:12;5.00;;;0.70;;
51824;SDS011;37879;52.986;6.282;2022-09-20T17:21:40;1.98;;;0.88;;
51824;SDS011;37879;52.986;6.282;2022-09-20T17:24:14;4.35;;;0.93;;
51824;SDS011;37879;52.986;6.282;2022-09-20T17:26:42;4.45;;;0.77;;
51824;SDS011;37879;52.986;6.282;2022-09-20T17:29:09;5.38;;;1.90;;
51824;SDS011;37879;52.986;6.282;2022-09-20T17:31:39;4.38;;;1.50;;
51824;SDS011;37879;52.986;6.282;2022-09-20T17:34:06;2.70;;;1.00;;
51824;SDS011;37879;52.986;6.282;2022-09-20T17:36:42;4.15;;;1.23;;
51824;SDS011;37879;52.986;6.282;2022-09-20T17:39:09;4.13;;;1.05;;
51824;SDS011;37879;52.986;6.282;2022-09-20T17:41:37;6.45;;;1.42;;
51824;SDS011;37879;52.986;6.282;2022-09-20T17:44:03;2.85;;;1.13;;
51824;SDS011;37879;52.986;6.282;2022-09-20T17:46:34;3.92;;;1.20;;
51824;SDS011;37879;52.986;6.282;2022-09-20T17:49:03;2.08;;;0.70;;
51824;SDS011;37879;52.986;6.282;2022-09-20T17:51:30;7.03;;;1.88;;
51824;SDS011;37879;52.986;6.282;2022-09-20T17:53:56;3.80;;;1.33;;
51824;SDS011;37879;52.986;6.282;2022-09-20T17:56:23;7.45;;;0.80;;
51824;SDS011;37879;52.986;6.282;2022-09-20T17:58:56;5.68;;;1.38;;
51824;SDS011;37879;52.986;6.282;2022-09-20T18:01:23;2.97;;;0.50;;
51824;SDS011;37879;52.986;6.282;2022-09-20T18:03:53;1.38;;;0.60;;
51824;SDS011;37879;52.986;6.282;2022-09-20T18:06:24;1.98;;;0.60;;
51824;SDS011;37879;52.986;6.282;2022-09-20T18:08:51;2.47;;;0.57;;
51824;SDS011;37879;52.986;6.282;2022-09-20T18:11:22;3.47;;;0.80;;
51824;SDS011;37879;52.986;6.282;2022-09-20T18:13:49;3.72;;;0.90;;
51824;SDS011;37879;52.986;6.282;2022-09-20T18:16:16;2.72;;;0.75;;
51824;SDS011;37879;52.986;6.282;2022-09-20T18:18:43;3.65;;;0.90;;
51824;SDS011;37879;52.986;6.282;2022-09-20T18:23:40;2.85;;;0.50;;
51824;SDS011;37879;52.986;6.282;2022-09-20T18:26:07;4.72;;;1.20;;
51824;SDS011;37879;52.986;6.282;2022-09-20T18:28:46;4.95;;;2.63;;
51824;SDS011;37879;52.986;6.282;2022-09-20T18:31:12;5.25;;;2.28;;
51824;SDS011;37879;52.986;6.282;2022-09-20T18:33:38;6.50;;;2.45;;
51824;SDS011;37879;52.986;6.282;2022-09-20T18:36:05;5.65;;;1.80;;
51824;SDS011;37879;52.986;6.282;2022-09-20T18:38:31;4.78;;;1.52;;
51824;SDS011;37879;52.986;6.282;2022-09-20T18:40:58;3.75;;;1.10;;
51824;SDS011;37879;52.986;6.282;2022-09-20T18:43:25;3.03;;;1.05;;
51824;SDS011;37879;52.986;6.282;2022-09-20T18:45:52;4.50;;;1.13;;
51824;SDS011;37879;52.986;6.282;2022-09-20T18:48:19;3.00;;;0.90;;
51824;SDS011;37879;52.986;6.282;2022-09-20T18:50:59;6.85;;;1.38;;
51824;SDS011;37879;52.986;6.282;2022-09-20T18:53:30;2.67;;;0.73;;
51824;SDS011;37879;52.986;6.282;2022-09-20T19:05:50;6.65;;;2.58;;
51824;SDS011;37879;52.986;6.282;2022-09-20T19:08:33;4.93;;;2.75;;
51824;SDS011;37879;52.986;6.282;2022-09-20T19:11:03;7.22;;;2.97;;
51824;SDS011;37879;52.986;6.282;2022-09-20T19:13:41;4.85;;;2.22;;
51824;SDS011;37879;52.986;6.282;2022-09-20T19:16:21;3.60;;;1.70;;
51824;SDS011;37879;52.986;6.282;2022-09-20T19:24:14;2.85;;;1.00;;
51824;SDS011;37879;52.986;6.282;2022-09-20T19:26:46;6.10;;;1.67;;
51824;SDS011;37879;52.986;6.282;2022-09-20T19:29:22;4.75;;;1.33;;
51824;SDS011;37879;52.986;6.282;2022-09-20T19:31:50;3.65;;;1.23;;
51824;SDS011;37879;52.986;6.282;2022-09-20T19:34:19;4.82;;;1.60;;
51824;SDS011;37879;52.986;6.282;2022-09-20T19:39:25;4.32;;;1.50;;
51824;SDS011;37879;52.986;6.282;2022-09-20T19:44:44;7.03;;;2.00;;
51824;SDS011;37879;52.986;6.282;2022-09-20T19:47:25;7.28;;;2.08;;
51824;SDS011;37879;52.986;6.282;2022-09-20T19:49:55;6.07;;;2.20;;
51824;SDS011;37879;52.986;6.282;2022-09-20T19:52:23;3.90;;;1.75;;
51824;SDS011;37879;52.986;6.282;2022-09-20T19:54:50;5.75;;;2.10;;
51824;SDS011;37879;52.986;6.282;2022-09-20T19:57:18;8.40;;;2.95;;
51824;SDS011;37879;52.986;6.282;2022-09-20T19:59:45;4.45;;;2.17;;
51824;SDS011;37879;52.986;6.282;2022-09-20T20:02:11;4.63;;;2.47;;
51824;SDS011;37879;52.986;6.282;2022-09-20T20:04:38;4.10;;;2.30;;
51824;SDS011;37879;52.986;6.282;2022-09-20T20:12:15;6.30;;;1.90;;
51824;SDS011;37879;52.986;6.282;2022-09-20T20:27:53;8.73;;;1.90;;
51824;SDS011;37879;52.986;6.282;2022-09-20T20:30:20;4.22;;;1.63;;
51824;SDS011;37879;52.986;6.282;2022-09-20T20:32:46;9.45;;;2.10;;
51824;SDS011;37879;52.986;6.282;2022-09-20T20:35:12;6.63;;;2.00;;
51824;SDS011;37879;52.986;6.282;2022-09-20T20:37:39;3.17;;;1.13;;
51824;SDS011;37879;52.986;6.282;2022-09-20T20:40:05;3.08;;;1.38;;
51824;SDS011;37879;52.986;6.282;2022-09-20T20:42:36;12.55;;;1.60;;
51824;SDS011;37879;52.986;6.282;2022-09-20T20:47:47;3.90;;;1.63;;
51824;SDS011;37879;52.986;6.282;2022-09-20T20:50:13;4.28;;;1.75;;
51824;SDS011;37879;52.986;6.282;2022-09-20T20:52:39;4.80;;;1.70;;
51824;SDS011;37879;52.986;6.282;2022-09-20T20:55:05;5.30;;;1.63;;
51824;SDS011;37879;52.986;6.282;2022-09-20T20:57:32;3.95;;;1.17;;
51824;SDS011;37879;52.986;6.282;2022-09-20T20:59:58;8.82;;;1.80;;
51824;SDS011;37879;52.986;6.282;2022-09-20T21:02:24;7.80;;;2.35;;